WEATHER DATA

TODAY
Time Temp. Dewp. Hum. Wind dir Wind speed Wind gust Bar. 1h Prec. 24h Prec.
00:03 15 9.4 69 242 0.6 0.8 1021.5 0.0000 0.0000
00:24 14.9 9.1 68 245 0.6 0.8 1021.4 0.0000 0.0000
00:34 14.8 8.7 67 242 0.6 0.8 1021.4 0.0000 0.0000
00:54 14.8 9 68 240 0.6 0.8 1021.5 0.0000 0.0000
01:04 14.9 9.1 68 239 0.3 0.8 1021.4 0.0000 0.0000
01:14 14.9 9.1 68 245 0.6 0.8 1021.4 0.0000 0.0000
01:25 14.9 9.1 68 245 0.6 0.8 1021.3 0.0000 0.0000
01:34 14.9 9.3 69 244 0.6 0.8 1021.3 0.0000 0.0000
01:44 14.9 9.3 69 241 0.6 0.8 1021.3 0.0000 0.0000
01:54 14.9 9.3 69 242 0.6 0.8 1021.3 0.0000 0.0000
02:05 14.9 9.3 69 244 0.6 0.8 1021.1 0.0000 0.0000
02:15 14.9 9.3 69 241 0.6 0.8 1021.1 0.0000 0.0000
02:25 14.9 9.3 69 246 0.6 0.8 1021.1 0.0000 0.0000
02:35 14.9 9.1 68 245 0.6 0.8 1021 0.0000 0.0000
02:45 14.9 9.1 68 244 0.6 0.8 1020.9 0.0000 0.0000
02:55 14.9 9.1 68 242 0.6 0.8 1020.9 0.0000 0.0000
03:05 14.9 9.1 68 270 0.3 0.8 1020.9 0.0000 0.0000
03:15 14.9 8.8 67 241 0.6 0.8 1020.8 0.0000 0.0000
03:25 14.9 8.8 67 245 0.6 0.8 1020.8 0.0000 0.0000
03:35 14.9 8.8 67 242 0.6 0.8 1020.7 0.0000 0.0000
03:46 14.9 8.8 67 241 0.6 0.8 1020.6 0.0000 0.0000
03:56 14.9 8.8 67 244 0.6 0.8 1020.5 0.0000 0.0000
04:06 14.9 8.8 67 242 0.6 0.8 1020.5 0.0000 0.0000
04:16 15 8.9 67 244 0.6 0.8 1020.6 0.0000 0.0000
04:27 15 8.7 66 244 0.6 0.8 1020.5 0.0000 0.0000
04:36 14.9 8.6 66 243 0.6 0.8 1020.5 0.0000 0.0000
04:46 14.9 8.6 66 240 0.6 0.8 1020.3 0.0000 0.0000
04:56 14.9 8.4 65 237 0.6 0.8 1020.3 0.0000 0.0000
05:08 14.8 8.5 66 239 0.6 0.8 1020.3 0.0000 0.0000
05:18 14.7 8.4 66 237 0.6 0.8 1020.5 0.0000 0.0000
05:28 14.6 8.3 66 241 0.6 0.8 1020.3 0.0000 0.0000
05:38 14.5 8.5 67 235 0.6 0.8 1020.2 0.0000 0.0000
05:49 14.3 8.3 67 234 0.6 1.1 1020 0.0000 0.0000
05:59 14.1 8.3 68 242 0.6 1.1 1020 0.0000 0.0000
06:08 14 8.4 69 238 0.6 1.1 1019.9 0.0000 0.0000
06:19 13.7 8.5 71 239 0.6 1.1 1019.9 0.0000 0.0000
06:29 13.6 8.4 71 238 0.6 0.8 1019.9 0.0000 0.0000
06:39 13.5 8.4 71 240 0.6 0.8 1019.8 0.0000 0.0000
06:49 13.3 8.2 71 238 0.6 0.8 1019.7 0.0000 0.0000
07:00 13.3 8.2 71 240 0.6 0.8 1019.8 0.0000 0.0000
07:10 13.3 8.4 72 239 0.6 0.8 1019.8 0.0000 0.0000
07:19 13.4 8.5 72 270 0.3 0.6 1019.8 0.0000 0.0000
07:29 13.4 8.5 72 239 0.3 0.6 1019.7 0.0000 0.0000
07:40 13.3 8.4 72 238 0.3 0.8 1019.9 0.0000 0.0000
07:50 13.2 8.1 71 270 0.3 0.8 1019.7 0.0000 0.0000
08:00 13.2 8.1 71 156 0.3 0.6 1019.7 0.0000 0.0000
08:10 13.2 8.1 71 203 0.3 1.1 1019.9 0.0000 0.0000
08:20 13.6 9.1 74 228 1.1 2.2 1019.9 0.0000 0.0000
08:30 14.6 8.8 68 229 0.8 1.9 1019.7 0.0000 0.0000
08:40 14.7 8.9 68 204 0.3 0.6 1019.7 0.0000 0.0000
08:51 14.9 8.8 67 212 0.6 1.9 1019.6 0.0000 0.0000
09:00 14.9 8.8 67 270 0.6 0.8 1019.6 0.0000 0.0000
09:10 15 8.9 67 270 0.6 1.1 1019.6 0.0000 0.0000
09:21 15.2 9.1 67 203 0.3 0.6 1019.5 0.0000 0.0000
09:31 15.6 9.3 66 213 0.3 0.8 1019.5 0.0000 0.0000
09:41 15.7 9.1 65 270 0.6 1.4 1019.4 0.0000 0.0000
09:50 15.6 9.3 66 247 1.1 1.4 1019.3 0.0000 0.0000
10:01 15.6 9.3 66 252 0.8 1.4 1019.1 0.0000 0.0000
10:11 15.8 9.5 66 253 0.8 1.4 1019.1 0.0000 0.0000
10:21 16 9.4 65 270 0.3 0.8 1019 0.0000 0.0000
10:31 16.3 9.7 65 194 0.3 0.6 1018.9 0.0000 0.0000
10:42 16.2 9.4 64 315 0.3 0.8 1018.8 0.0000 0.0000
10:51 16.1 9.5 65 270 0.3 0.8 1018.8 0.0000 0.0000
11:01 16.7 10.5 67 123 0.3 0.8 1018.9 0.0000 0.0000
11:12 17 9.9 63 45 0.3 0.8 1018.7 0.0000 0.0000
11:22 17.1 10.2 64 270 0.3 0.6 1018.4 0.0000 0.0000
11:32 17.9 10.8 63 351 0.8 1.7 1018.1 0.0000 0.0000
11:42 18.4 10.8 61 315 0.6 1.7 1017.9 0.0000 0.0000
11:52 18.9 11 60 270 0.3 0.8 1017.7 0.0000 0.0000
12:02 19.3 11.1 59 180 0.3 1.1 1017.6 0.0000 0.0000
12:12 19.8 11.3 58 180 0.3 0.8 1017.3 0.0000 0.0000
12:23 20.2 11.4 57 194 0.3 1.1 1017.2 0.0000 0.0000
12:32 20.6 11.5 56 149 0.3 1.1 1017.1 0.0000 0.0000
12:42 21 11.9 56 135 0.3 0.8 1017 0.0000 0.0000
12:52 21.4 12 55 161 0.3 0.6 1016.8 0.0000 0.0000
13:03 21.7 12.3 55 156 0.3 0.8 1016.7 0.0000 0.0000
13:13 22.1 12.4 54 168 0.3 0.8 1016.4 0.0000 0.0000
13:22 22.4 12.6 54 135 0.3 1.1 1016.2 0.0000 0.0000
13:33 22.8 12.4 52 180 0.3 0.8 1016.2 0.0000 0.0000
13:43 23.1 12.7 52 171 0.3 0.6 1016.1 0.0000 0.0000
13:53 23.4 13 52 191 0.3 0.8 1015.8 0.0000 0.0000
14:03 23.7 13 51 168 0.3 0.6 1015.6 0.0000 0.0000
14:13 23.9 13.2 51 225 0.3 0.8 1015.5 0.0000 0.0000
14:23 24 13.2 51 153 0.3 0.8 1015.4 0.0000 0.0000
14:33 24.2 13.4 51 135 0.3 0.6 1015.3 0.0000 0.0000
14:44 24.1 13 50 251 0.6 1.1 1015.4 0.0000 0.0000
14:53 24.1 13.3 51 270 0.8 1.4 1015.5 0.0000 0.0000
15:03 24.4 13.6 51 168 0.3 0.6 1015.4 0.0000 0.0000
15:13 24.8 13.7 50 185 0.3 0.6 1015.3 0.0000 0.0000
15:24 24.8 13.7 50 180 0.3 0.6 1015.2 0.0000 0.0000
15:34 24.4 13.3 50 153 0.3 1.4 1015.2 0.0000 0.0000
15:43 24 12.9 50 270 0.6 1.7 1015.2 0.0000 0.0000
15:54 23.4 12.7 51 288 0.8 1.7 1015.1 0.0000 0.0000
16:04 22.8 12.4 52 270 0.8 1.7 1015.3 0.0000 0.0000
16:14 22.5 12.5 53 270 0.6 1.1 1015.2 0.0000 0.0000
16:24 22.2 12.5 54 270 0.6 1.1 1015.1 0.0000 0.0000
16:34 22 12.3 54 270 0.6 1.4 1014.9 0.0000 0.0000

DAY STATISTIC

2020-10-31
TEMPERATURE
AVERAGE
17.2
HIGH
24.8
15:13
LOW
13.2
07:50
PRESSURE
AVERAGE
1018.9
HIGH
1021.5
00:03
LOW
1014.9
16:34
DEWPOINT
AVERAGE
10.0
HIGH
13.7
15:13
LOW
8.1
07:50
HUMIDITY
AVERAGE
63
HIGH
74
08:20
LOW
50
14:44
WIND SPEED
AVERAGE
0.5
HIGH
1.1
08:20
WIND GUST
AVERAGE
0.9
HIGH
2.2
08:20
WIND DIRECTION
PREVAILING
SW
49.5%
N
1.0
NE
1.0
E
0.0
SE
9.3
S
16.5
SW
49.5
W
20.6
NW
2.1
PRECIPITATION
RAIN HOUR
0.0
RAIN DAY
0.0
TEMPERATURE (°C)
LOW
13.2
HIGH
24.8
AVERAGE
17.2
PRESSURE (hpa)
LOW
1014.9
HIGH
1021.5
AVERAGE
1018.9
DEVICE